Time;durP1;ratioP1;P1;durP2;ratioP2;P2;SDS_P1;SDS_P2;PMS_P1;PMS_P2;Temp;Humidity;BMP_temperature;BMP_pressure;BME280_temperature;BME280_humidity;BME280_pressure;Samples;Min_cycle;Max_cycle;Signal;HPM_P1;HPM_P2
2023/09/01 00:02:13;;;;;;;5.53;1.52;;;;;;;;;;5114182;28;20113;-77
2023/09/01 00:04:39;;;;;;;4.75;1.83;;;;;;;;;;5112838;28;20055;-78
2023/09/01 00:07:05;;;;;;;6.80;2.00;;;;;;;;;;5096244;28;20067;-78
2023/09/01 00:09:32;;;;;;;6.15;1.90;;;;;;;;;;5114134;28;20051;-77
2023/09/01 00:11:58;;;;;;;6.18;2.05;;;;;;;;;;5113528;28;20044;-78
2023/09/01 00:14:24;;;;;;;7.75;2.15;;;;;;;;;;5114202;28;20054;-78
2023/09/01 00:16:50;;;;;;;7.22;1.80;;;;;;;;;;5114338;28;20520;-78
2023/09/01 00:19:16;;;;;;;6.38;1.75;;;;;;;;;;5114021;27;20507;-78
2023/09/01 00:21:42;;;;;;;7.00;1.80;;;;;;;;;;5104989;27;20040;-78
2023/09/01 00:24:08;;;;;;;6.07;1.98;;;;;;;;;;5112508;28;20031;-78
2023/09/01 00:26:34;;;;;;;6.95;2.08;;;;;;;;;;5059132;28;20223;-78
2023/09/01 00:29:00;;;;;;;6.50;2.10;;;;;;;;;;5095832;28;20051;-78
2023/09/01 00:31:26;;;;;;;8.70;2.10;;;;;;;;;;5113092;28;20123;-78
2023/09/01 00:33:52;;;;;;;6.10;2.10;;;;;;;;;;5093157;28;20082;-78
2023/09/01 00:36:19;;;;;;;6.55;2.25;;;;;;;;;;5100991;28;20413;-78
2023/09/01 00:38:45;;;;;;;6.80;2.00;;;;;;;;;;5112396;28;20046;-79
2023/09/01 00:41:11;;;;;;;5.97;2.10;;;;;;;;;;5098510;28;20127;-78
2023/09/01 00:43:37;;;;;;;7.05;1.95;;;;;;;;;;5109251;28;20436;-78
2023/09/01 00:46:03;;;;;;;5.78;1.98;;;;;;;;;;5084549;28;20040;-78
2023/09/01 00:48:29;;;;;;;5.60;2.15;;;;;;;;;;5100630;28;20043;-78
2023/09/01 00:50:55;;;;;;;5.93;2.35;;;;;;;;;;5099167;28;20129;-78
2023/09/01 00:53:22;;;;;;;8.77;2.63;;;;;;;;;;5112651;28;20072;-78
2023/09/01 00:55:49;;;;;;;6.35;2.38;;;;;;;;;;5095727;28;20040;-78
2023/09/01 00:58:15;;;;;;;6.35;2.58;;;;;;;;;;5094887;28;20052;-78
2023/09/01 01:00:42;;;;;;;6.53;2.65;;;;;;;;;;5101728;28;20138;-78
2023/09/01 01:03:10;;;;;;;8.57;2.65;;;;;;;;;;5106090;28;20092;-78
2023/09/01 01:05:46;;;;;;;8.02;2.42;;;;;;;;;;5097790;28;20044;-78
2023/09/01 01:08:16;;;;;;;9.65;2.80;;;;;;;;;;5105443;28;20039;-78
2023/09/01 01:10:45;;;;;;;6.65;2.80;;;;;;;;;;5106401;28;20470;-78
2023/09/01 01:13:14;;;;;;;8.05;2.95;;;;;;;;;;5105076;28;20070;-79
2023/09/01 01:15:42;;;;;;;7.47;2.75;;;;;;;;;;5075714;28;20052;-78
2023/09/01 01:18:10;;;;;;;6.40;3.00;;;;;;;;;;5102130;28;20177;-77
2023/09/01 01:20:38;;;;;;;7.63;3.30;;;;;;;;;;5094070;28;20092;-77
2023/09/01 01:23:09;;;;;;;6.72;2.90;;;;;;;;;;5110500;28;20039;-78
2023/09/01 01:25:36;;;;;;;5.65;2.75;;;;;;;;;;5095223;28;20136;-77
2023/09/01 01:28:08;;;;;;;7.57;3.22;;;;;;;;;;5113094;28;20035;-77
2023/09/01 01:30:34;;;;;;;7.88;3.00;;;;;;;;;;5088263;28;20541;-78
2023/09/01 01:33:00;;;;;;;10.63;3.05;;;;;;;;;;5103783;28;20514;-77
2023/09/01 01:35:29;;;;;;;9.05;3.42;;;;;;;;;;5097506;28;20043;-78
2023/09/01 01:38:07;;;;;;;6.30;3.13;;;;;;;;;;5087568;28;20040;-78
2023/09/01 01:40:34;;;;;;;9.60;2.95;;;;;;;;;;5071129;28;20044;-78
2023/09/01 01:43:02;;;;;;;6.38;3.13;;;;;;;;;;5106388;28;20438;-78
2023/09/01 01:45:29;;;;;;;6.80;3.03;;;;;;;;;;5108003;28;20630;-78
2023/09/01 01:47:55;;;;;;;7.13;3.50;;;;;;;;;;5107801;28;20043;-77
2023/09/01 01:50:21;;;;;;;8.65;3.30;;;;;;;;;;5111781;28;20044;-78
2023/09/01 01:52:47;;;;;;;9.73;3.03;;;;;;;;;;5105236;28;20127;-77
2023/09/01 01:55:13;;;;;;;8.65;3.35;;;;;;;;;;5099915;28;20393;-78
2023/09/01 01:57:40;;;;;;;7.85;3.63;;;;;;;;;;5096786;28;20093;-77
2023/09/01 02:00:11;;;;;;;8.50;3.10;;;;;;;;;;5114791;28;20058;-78
2023/09/01 02:02:40;;;;;;;7.93;3.22;;;;;;;;;;5097053;28;20048;-77
2023/09/01 02:05:07;;;;;;;10.10;4.10;;;;;;;;;;5109129;28;20035;-78
2023/09/01 02:07:33;;;;;;;7.47;3.88;;;;;;;;;;5121161;27;20055;-77
2023/09/01 02:09:59;;;;;;;8.73;3.72;;;;;;;;;;5117128;27;20118;-77
2023/09/01 02:12:25;;;;;;;8.02;3.85;;;;;;;;;;5100948;28;20047;-78
2023/09/01 02:14:51;;;;;;;8.10;4.07;;;;;;;;;;5099863;27;20040;-78
2023/09/01 02:17:17;;;;;;;7.28;4.15;;;;;;;;;;5103777;28;20126;-78
2023/09/01 02:19:44;;;;;;;8.73;3.50;;;;;;;;;;5108113;28;20039;-77
2023/09/01 02:22:10;;;;;;;7.38;3.70;;;;;;;;;;5118702;27;20047;-78
2023/09/01 02:24:36;;;;;;;10.93;4.13;;;;;;;;;;5116824;28;20044;-77
2023/09/01 02:27:04;;;;;;;8.15;3.78;;;;;;;;;;5113294;28;20104;-78
2023/09/01 02:29:31;;;;;;;8.90;3.78;;;;;;;;;;5116972;28;20079;-77
2023/09/01 02:31:57;;;;;;;8.68;3.97;;;;;;;;;;5123876;27;20417;-78
2023/09/01 02:34:23;;;;;;;10.35;4.25;;;;;;;;;;5106707;28;20447;-77
2023/09/01 02:36:49;;;;;;;8.55;4.30;;;;;;;;;;5106322;28;20047;-77
2023/09/01 02:39:17;;;;;;;8.40;3.80;;;;;;;;;;5103916;28;20114;-78
2023/09/01 02:41:43;;;;;;;8.18;3.63;;;;;;;;;;5100831;28;20504;-77
2023/09/01 02:44:09;;;;;;;9.68;4.03;;;;;;;;;;5113816;27;20035;-78
2023/09/01 02:46:35;;;;;;;5.90;3.40;;;;;;;;;;5095683;28;20036;-77
2023/09/01 02:49:01;;;;;;;6.47;3.50;;;;;;;;;;5109705;28;20047;-78
2023/09/01 02:51:27;;;;;;;8.98;4.43;;;;;;;;;;5110050;27;20546;-78
2023/09/01 02:53:53;;;;;;;10.52;5.07;;;;;;;;;;5096061;28;20090;-78
2023/09/01 02:56:19;;;;;;;10.93;5.78;;;;;;;;;;5101952;27;20036;-78
2023/09/01 02:58:46;;;;;;;9.90;6.03;;;;;;;;;;5109344;28;20059;-78
2023/09/01 03:01:12;;;;;;;12.38;6.40;;;;;;;;;;5099683;28;20055;-78
2023/09/01 03:03:40;;;;;;;14.10;7.57;;;;;;;;;;5115426;27;20396;-78
2023/09/01 03:06:08;;;;;;;14.65;9.02;;;;;;;;;;5094130;28;20066;-78
2023/09/01 03:08:34;;;;;;;14.45;9.40;;;;;;;;;;5103584;27;20051;-78
2023/09/01 03:11:01;;;;;;;13.95;10.18;;;;;;;;;;5109337;28;20057;-78
2023/09/01 03:13:27;;;;;;;14.75;10.88;;;;;;;;;;5105290;28;20040;-78
2023/09/01 03:15:54;;;;;;;12.25;9.55;;;;;;;;;;5099676;28;20040;-78
2023/09/01 03:18:20;;;;;;;15.68;9.82;;;;;;;;;;5113702;27;20051;-77
2023/09/01 03:20:47;;;;;;;12.60;8.45;;;;;;;;;;5096405;27;20062;-77
2023/09/01 03:23:13;;;;;;;12.48;8.98;;;;;;;;;;5097325;27;20050;-78
2023/09/01 03:25:39;;;;;;;13.18;8.50;;;;;;;;;;5076926;28;20048;-77
2023/09/01 03:28:05;;;;;;;14.95;8.25;;;;;;;;;;5095621;28;20044;-78
2023/09/01 03:30:32;;;;;;;12.20;8.25;;;;;;;;;;5099339;27;20112;-78
2023/09/01 03:32:58;;;;;;;13.98;7.97;;;;;;;;;;5107505;28;20118;-77
2023/09/01 03:35:24;;;;;;;10.45;7.80;;;;;;;;;;5114565;28;20127;-77
2023/09/01 03:37:50;;;;;;;11.77;6.82;;;;;;;;;;5097170;28;20055;-78
2023/09/01 03:40:16;;;;;;;10.48;7.03;;;;;;;;;;5114241;27;20039;-78
2023/09/01 03:42:43;;;;;;;13.15;7.47;;;;;;;;;;5100926;27;20040;-78
2023/09/01 03:45:09;;;;;;;12.23;7.28;;;;;;;;;;5104137;28;20444;-78
2023/09/01 03:47:35;;;;;;;12.00;7.13;;;;;;;;;;5094780;28;20040;-77
2023/09/01 03:50:01;;;;;;;12.52;7.30;;;;;;;;;;5106960;28;20043;-77
2023/09/01 03:52:27;;;;;;;11.50;7.55;;;;;;;;;;5105135;27;20040;-77
2023/09/01 03:54:53;;;;;;;14.40;7.93;;;;;;;;;;5117631;27;20048;-78
2023/09/01 03:57:19;;;;;;;14.45;7.78;;;;;;;;;;5103108;27;20047;-77
2023/09/01 03:59:47;;;;;;;12.50;7.70;;;;;;;;;;5094038;28;20052;-77
2023/09/01 04:02:13;;;;;;;11.63;8.05;;;;;;;;;;5100953;28;20051;-77
2023/09/01 04:04:39;;;;;;;13.38;8.05;;;;;;;;;;5100097;27;20039;-77
2023/09/01 04:07:06;;;;;;;16.02;8.38;;;;;;;;;;5094083;28;20053;-77
2023/09/01 04:09:32;;;;;;;12.43;8.32;;;;;;;;;;5088417;28;20052;-78
2023/09/01 04:11:58;;;;;;;13.18;8.30;;;;;;;;;;5093680;28;20529;-77
2023/09/01 04:14:24;;;;;;;12.95;7.82;;;;;;;;;;5089079;28;20063;-77
2023/09/01 04:16:50;;;;;;;12.68;8.07;;;;;;;;;;5088520;28;20047;-77
2023/09/01 04:19:16;;;;;;;14.68;8.80;;;;;;;;;;5089116;28;20051;-77
2023/09/01 04:21:42;;;;;;;11.82;8.13;;;;;;;;;;5089917;28;20102;-78
2023/09/01 04:24:10;;;;;;;15.32;8.43;;;;;;;;;;5089845;28;20044;-77
2023/09/01 04:26:36;;;;;;;11.02;8.30;;;;;;;;;;5093649;28;20109;-77
2023/09/01 04:29:03;;;;;;;12.63;8.50;;;;;;;;;;5092820;28;20044;-77
2023/09/01 04:31:29;;;;;;;16.23;9.52;;;;;;;;;;5090722;28;20044;-77
2023/09/01 04:33:56;;;;;;;15.05;9.25;;;;;;;;;;5090310;28;20055;-78
2023/09/01 04:36:22;;;;;;;15.75;9.00;;;;;;;;;;5081162;28;20461;-77
2023/09/01 04:38:48;;;;;;;16.83;9.27;;;;;;;;;;5087654;28;20048;-77
2023/09/01 04:41:14;;;;;;;16.25;10.20;;;;;;;;;;5083293;28;20139;-78
2023/09/01 04:43:41;;;;;;;15.10;9.10;;;;;;;;;;5075236;28;20044;-77
2023/09/01 04:46:07;;;;;;;15.43;8.30;;;;;;;;;;5083924;28;20039;-77
2023/09/01 04:48:34;;;;;;;11.57;7.95;;;;;;;;;;5086216;28;20056;-77
2023/09/01 04:51:02;;;;;;;11.23;7.93;;;;;;;;;;5086882;28;20193;-77
2023/09/01 04:53:28;;;;;;;12.15;8.05;;;;;;;;;;5092233;28;20055;-77
2023/09/01 04:55:55;;;;;;;10.32;7.15;;;;;;;;;;5090885;28;20101;-77
2023/09/01 04:58:21;;;;;;;11.18;7.97;;;;;;;;;;5079404;28;20387;-78
2023/09/01 05:00:48;;;;;;;12.15;8.15;;;;;;;;;;5074528;28;20048;-78
2023/09/01 05:03:14;;;;;;;11.55;8.35;;;;;;;;;;5089964;28;20050;-78
2023/09/01 05:05:40;;;;;;;11.90;7.65;;;;;;;;;;5091942;28;20071;-79
2023/09/01 05:08:06;;;;;;;11.63;7.80;;;;;;;;;;5095098;28;20501;-78
2023/09/01 05:10:33;;;;;;;11.38;7.80;;;;;;;;;;5108368;28;20040;-78
2023/09/01 05:12:59;;;;;;;13.77;8.10;;;;;;;;;;5092957;28;20050;-78
2023/09/01 05:15:25;;;;;;;14.52;8.07;;;;;;;;;;5109320;28;20039;-78
2023/09/01 05:17:51;;;;;;;12.63;8.05;;;;;;;;;;5098342;28;20404;-78
2023/09/01 05:20:17;;;;;;;14.48;8.57;;;;;;;;;;5109025;28;20043;-78
2023/09/01 05:22:43;;;;;;;11.80;8.35;;;;;;;;;;5112879;28;20062;-78
2023/09/01 05:25:11;;;;;;;13.05;8.38;;;;;;;;;;5099195;28;20264;-76
2023/09/01 05:27:37;;;;;;;13.77;8.07;;;;;;;;;;5100149;28;20036;-76
2023/09/01 05:30:03;;;;;;;11.35;7.90;;;;;;;;;;5111020;28;20050;-78
2023/09/01 05:32:30;;;;;;;11.63;7.53;;;;;;;;;;5108381;28;20126;-79
2023/09/01 05:34:56;;;;;;;11.85;6.90;;;;;;;;;;5107678;28;20402;-79
2023/09/01 05:37:22;;;;;;;15.98;7.60;;;;;;;;;;5109337;28;20050;-78
2023/09/01 05:39:48;;;;;;;11.23;6.32;;;;;;;;;;5082286;28;20056;-78
2023/09/01 05:42:14;;;;;;;12.90;6.90;;;;;;;;;;5106391;28;20101;-78
2023/09/01 05:44:41;;;;;;;10.15;6.30;;;;;;;;;;5109265;28;20401;-78
2023/09/01 05:47:07;;;;;;;8.65;6.28;;;;;;;;;;5092765;28;20040;-78
2023/09/01 05:49:34;;;;;;;11.05;6.43;;;;;;;;;;5102043;28;20043;-78
2023/09/01 05:52:01;;;;;;;9.30;5.75;;;;;;;;;;5093622;28;20045;-79
2023/09/01 05:54:27;;;;;;;9.43;5.22;;;;;;;;;;5093354;28;20032;-78
2023/09/01 05:56:53;;;;;;;8.60;5.38;;;;;;;;;;5102664;28;20048;-79
2023/09/01 05:59:19;;;;;;;11.23;5.28;;;;;;;;;;5099952;28;20151;-78
2023/09/01 06:01:46;;;;;;;13.93;5.97;;;;;;;;;;5111375;28;20047;-78
2023/09/01 06:04:12;;;;;;;13.60;5.85;;;;;;;;;;5102603;28;20055;-79
2023/09/01 06:06:38;;;;;;;8.98;5.10;;;;;;;;;;5084932;28;20119;-78
2023/09/01 06:09:05;;;;;;;8.48;5.22;;;;;;;;;;5104897;28;20043;-79
2023/09/01 06:11:32;;;;;;;8.48;4.90;;;;;;;;;;5107682;28;20055;-79
2023/09/01 06:13:58;;;;;;;7.30;4.78;;;;;;;;;;5106088;28;20052;-79
2023/09/01 06:16:28;;;;;;;10.75;4.90;;;;;;;;;;5110490;28;20058;-79
2023/09/01 06:18:54;;;;;;;8.68;5.13;;;;;;;;;;5111396;28;20073;-78
2023/09/01 06:21:20;;;;;;;8.10;5.22;;;;;;;;;;5111155;28;20065;-78
2023/09/01 06:23:47;;;;;;;7.88;4.72;;;;;;;;;;5111048;28;20126;-78
2023/09/01 06:26:13;;;;;;;7.32;4.55;;;;;;;;;;5104892;28;20557;-78
2023/09/01 06:28:40;;;;;;;8.05;4.88;;;;;;;;;;5113948;28;20039;-78
2023/09/01 06:31:07;;;;;;;8.68;4.93;;;;;;;;;;5109987;28;20043;-78
2023/09/01 06:33:33;;;;;;;8.10;5.25;;;;;;;;;;5098090;28;20072;-78
2023/09/01 06:35:59;;;;;;;10.60;4.88;;;;;;;;;;5089066;28;20122;-77
2023/09/01 06:38:25;;;;;;;8.88;5.10;;;;;;;;;;5102618;28;20035;-79
2023/09/01 06:40:51;;;;;;;8.98;5.07;;;;;;;;;;5107162;28;20097;-77
2023/09/01 06:43:17;;;;;;;9.95;4.63;;;;;;;;;;5103268;28;20041;-77
2023/09/01 06:45:43;;;;;;;10.43;5.20;;;;;;;;;;5102023;28;20046;-77
2023/09/01 06:48:09;;;;;;;9.23;5.40;;;;;;;;;;5111551;28;20558;-77
2023/09/01 06:50:38;;;;;;;8.43;5.35;;;;;;;;;;5114184;28;20379;-77
2023/09/01 06:53:04;;;;;;;9.07;5.78;;;;;;;;;;5108993;28;20043;-76
2023/09/01 06:55:30;;;;;;;10.25;6.53;;;;;;;;;;5111394;28;20660;-78
2023/09/01 06:57:56;;;;;;;12.82;6.95;;;;;;;;;;5110846;28;20046;-77
2023/09/01 07:00:22;;;;;;;11.02;6.55;;;;;;;;;;5113532;28;20054;-77
2023/09/01 07:02:48;;;;;;;11.63;7.10;;;;;;;;;;5095623;28;20044;-77
2023/09/01 07:05:16;;;;;;;10.90;7.72;;;;;;;;;;5110515;28;20036;-77
2023/09/01 07:07:42;;;;;;;9.85;7.60;;;;;;;;;;5105077;28;20067;-78
2023/09/01 07:10:08;;;;;;;13.43;8.00;;;;;;;;;;5113132;28;20063;-77
2023/09/01 07:12:35;;;;;;;10.27;7.63;;;;;;;;;;5113013;28;20054;-78
2023/09/01 07:15:02;;;;;;;11.57;7.28;;;;;;;;;;5106801;28;20121;-77
2023/09/01 07:17:28;;;;;;;9.82;7.32;;;;;;;;;;5107942;28;20040;-77
2023/09/01 07:19:54;;;;;;;9.93;6.93;;;;;;;;;;5114075;28;20052;-77
2023/09/01 07:22:20;;;;;;;10.90;7.50;;;;;;;;;;5114842;28;20051;-77
2023/09/01 07:24:46;;;;;;;10.02;7.30;;;;;;;;;;5114050;28;20498;-77
2023/09/01 07:27:13;;;;;;;11.48;7.75;;;;;;;;;;5114914;28;20404;-77
2023/09/01 07:29:39;;;;;;;11.38;7.78;;;;;;;;;;5115150;28;20050;-78
2023/09/01 07:32:05;;;;;;;11.70;7.03;;;;;;;;;;5108874;28;20044;-77
2023/09/01 07:34:31;;;;;;;11.82;7.78;;;;;;;;;;5099068;28;20048;-77
2023/09/01 07:36:57;;;;;;;10.35;7.15;;;;;;;;;;5112968;28;20036;-76
2023/09/01 07:39:23;;;;;;;11.43;8.30;;;;;;;;;;5110278;28;20505;-76
2023/09/01 07:41:49;;;;;;;10.77;8.30;;;;;;;;;;5102328;28;20066;-76
2023/09/01 07:44:20;;;;;;;12.18;8.70;;;;;;;;;;5114172;27;20040;-76
2023/09/01 07:46:46;;;;;;;14.35;9.13;;;;;;;;;;5117367;27;20062;-77
2023/09/01 07:49:12;;;;;;;12.95;9.55;;;;;;;;;;5110462;27;20040;-77
2023/09/01 07:51:38;;;;;;;12.65;8.75;;;;;;;;;;5100135;27;20113;-75
2023/09/01 07:54:05;;;;;;;15.88;10.32;;;;;;;;;;5094417;28;20463;-78
2023/09/01 07:56:32;;;;;;;12.35;9.45;;;;;;;;;;5102132;28;20039;-76
2023/09/01 07:58:58;;;;;;;13.15;9.85;;;;;;;;;;5125052;27;20068;-76
2023/09/01 08:01:25;;;;;;;12.02;8.50;;;;;;;;;;5108216;28;20047;-77
2023/09/01 08:03:51;;;;;;;12.57;8.85;;;;;;;;;;5118972;27;20050;-76
2023/09/01 08:06:17;;;;;;;12.23;8.95;;;;;;;;;;5115611;27;20084;-77
2023/09/01 08:08:43;;;;;;;11.93;6.90;;;;;;;;;;5113159;28;20052;-77
2023/09/01 08:11:09;;;;;;;9.75;7.80;;;;;;;;;;5109324;28;20056;-76
2023/09/01 08:13:35;;;;;;;12.63;7.32;;;;;;;;;;5103743;28;20044;-77
2023/09/01 08:16:01;;;;;;;13.25;8.60;;;;;;;;;;5111267;28;20048;-77
2023/09/01 08:18:27;;;;;;;12.32;7.70;;;;;;;;;;5105561;27;20408;-77
2023/09/01 08:20:53;;;;;;;12.68;8.07;;;;;;;;;;5097262;28;20055;-77
2023/09/01 08:23:21;;;;;;;12.60;8.80;;;;;;;;;;5098039;28;20569;-78
2023/09/01 08:25:48;;;;;;;10.90;8.35;;;;;;;;;;5093827;28;20451;-77
2023/09/01 08:28:14;;;;;;;13.23;8.68;;;;;;;;;;5105243;28;20055;-77
2023/09/01 08:30:40;;;;;;;14.07;8.27;;;;;;;;;;5088809;28;20039;-77
2023/09/01 08:33:08;;;;;;;13.07;8.50;;;;;;;;;;5103799;28;20043;-78
2023/09/01 08:35:34;;;;;;;12.13;8.05;;;;;;;;;;5110767;28;20470;-77
2023/09/01 08:38:00;;;;;;;10.75;7.18;;;;;;;;;;5113697;28;20052;-78
2023/09/01 08:40:27;;;;;;;10.48;6.53;;;;;;;;;;5113579;28;20127;-78
2023/09/01 08:42:54;;;;;;;11.32;5.68;;;;;;;;;;5098375;28;20717;-77
2023/09/01 08:45:21;;;;;;;9.13;4.72;;;;;;;;;;5094350;28;20043;-78
2023/09/01 08:47:48;;;;;;;8.98;4.13;;;;;;;;;;5095773;28;20058;-78
2023/09/01 08:50:17;;;;;;;7.43;3.47;;;;;;;;;;5105229;28;20051;-77
2023/09/01 08:52:44;;;;;;;8.18;4.03;;;;;;;;;;5100325;28;20052;-78
2023/09/01 08:55:12;;;;;;;9.95;3.97;;;;;;;;;;5107098;28;20047;-77
2023/09/01 08:57:39;;;;;;;12.35;4.72;;;;;;;;;;5113194;27;20052;-77
2023/09/01 09:00:07;;;;;;;9.77;4.30;;;;;;;;;;5112412;28;20394;-78
2023/09/01 09:02:34;;;;;;;9.18;3.63;;;;;;;;;;5100759;27;20054;-78
2023/09/01 09:05:00;;;;;;;8.35;4.50;;;;;;;;;;5099082;28;20043;-76
2023/09/01 09:07:26;;;;;;;10.95;5.05;;;;;;;;;;5109110;28;20057;-77
2023/09/01 09:09:53;;;;;;;9.63;5.35;;;;;;;;;;5109590;28;20040;-77
2023/09/01 09:12:21;;;;;;;10.30;5.95;;;;;;;;;;5095992;28;20074;-77
2023/09/01 09:14:50;;;;;;;12.00;5.63;;;;;;;;;;5120207;27;20090;-77
2023/09/01 09:17:17;;;;;;;9.45;4.90;;;;;;;;;;5112623;28;20104;-78
2023/09/01 09:19:59;;;;;;;11.45;5.45;;;;;;;;;;5113348;28;20512;-77
2023/09/01 09:22:25;;;;;;;11.90;6.20;;;;;;;;;;5112871;28;20096;-77
2023/09/01 09:24:52;;;;;;;8.30;4.78;;;;;;;;;;5113124;28;20040;-78
2023/09/01 09:27:20;;;;;;;12.02;5.40;;;;;;;;;;5118495;28;20108;-77
2023/09/01 09:29:48;;;;;;;8.77;5.45;;;;;;;;;;5104532;27;20044;-76
2023/09/01 09:32:21;;;;;;;10.48;5.88;;;;;;;;;;5106597;28;20052;-79
2023/09/01 09:35:07;;;;;;;9.68;5.97;;;;;;;;;;5097250;28;20055;-77
2023/09/01 09:37:34;;;;;;;11.35;5.95;;;;;;;;;;5113761;28;20043;-76
2023/09/01 09:40:13;;;;;;;11.35;5.85;;;;;;;;;;5105799;28;20059;-76
2023/09/01 09:42:41;;;;;;;13.95;8.35;;;;;;;;;;5092163;28;20042;-77
2023/09/01 09:45:21;;;;;;;11.77;7.03;;;;;;;;;;5092258;28;20490;-77
2023/09/01 09:47:51;;;;;;;13.32;6.47;;;;;;;;;;5107098;28;20047;-76
2023/09/01 09:50:18;;;;;;;13.93;7.43;;;;;;;;;;5111344;28;20044;-78
2023/09/01 09:52:50;;;;;;;14.95;7.72;;;;;;;;;;5113097;28;20036;-76
2023/09/01 09:55:23;;;;;;;13.82;7.60;;;;;;;;;;5104216;28;20115;-76
2023/09/01 09:57:50;;;;;;;11.60;7.35;;;;;;;;;;5102344;28;20795;-76
2023/09/01 10:00:17;;;;;;;14.32;7.53;;;;;;;;;;5100143;28;20048;-78
2023/09/01 10:02:48;;;;;;;13.85;7.70;;;;;;;;;;5104728;28;20439;-77
2023/09/01 10:05:15;;;;;;;14.90;8.93;;;;;;;;;;5106843;28;20048;-78
2023/09/01 10:07:41;;;;;;;13.75;10.18;;;;;;;;;;5103295;28;20090;-76
2023/09/01 10:10:08;;;;;;;15.25;11.02;;;;;;;;;;5101416;28;20064;-76
2023/09/01 10:12:34;;;;;;;16.40;10.60;;;;;;;;;;5092063;28;20044;-76
2023/09/01 10:15:03;;;;;;;16.88;10.63;;;;;;;;;;5094460;28;20409;-76
2023/09/01 10:17:29;;;;;;;18.70;10.77;;;;;;;;;;5102100;28;20040;-75
2023/09/01 10:19:56;;;;;;;15.98;11.48;;;;;;;;;;5113865;27;20047;-76
2023/09/01 10:22:23;;;;;;;19.42;11.25;;;;;;;;;;5098146;28;20130;-77
2023/09/01 10:25:07;;;;;;;18.00;12.68;;;;;;;;;;5115982;28;20051;-76
2023/09/01 10:27:33;;;;;;;17.92;12.75;;;;;;;;;;5116689;28;20058;-76
2023/09/01 10:30:00;;;;;;;19.38;12.88;;;;;;;;;;5116308;28;20413;-77
2023/09/01 10:32:28;;;;;;;18.67;13.85;;;;;;;;;;5115923;28;20085;-77
2023/09/01 10:34:55;;;;;;;18.80;14.10;;;;;;;;;;5118103;27;20100;-78
2023/09/01 10:37:26;;;;;;;17.83;12.13;;;;;;;;;;5117702;27;20043;-75
2023/09/01 10:39:52;;;;;;;17.48;11.55;;;;;;;;;;5116425;28;20044;-77
2023/09/01 10:42:38;;;;;;;18.05;10.77;;;;;;;;;;5114288;27;20114;-77
2023/09/01 10:45:07;;;;;;;18.10;11.15;;;;;;;;;;5104395;28;20040;-77
2023/09/01 10:47:34;;;;;;;18.08;11.35;;;;;;;;;;5084241;28;20047;-75
2023/09/01 10:50:04;;;;;;;19.98;11.95;;;;;;;;;;5095062;28;20413;-77
2023/09/01 10:52:31;;;;;;;19.92;10.32;;;;;;;;;;5111688;28;20131;-77
2023/09/01 10:55:02;;;;;;;16.42;10.95;;;;;;;;;;5112874;28;20507;-76
2023/09/01 10:57:45;;;;;;;18.02;11.75;;;;;;;;;;5110601;28;20532;-75
2023/09/01 11:00:27;;;;;;;22.92;11.85;;;;;;;;;;5107883;28;20494;-76
2023/09/01 11:02:53;;;;;;;18.58;11.13;;;;;;;;;;5095888;28;20052;-76
2023/09/01 11:05:39;;;;;;;15.30;10.45;;;;;;;;;;5095039;28;20044;-76
2023/09/01 11:08:18;;;;;;;16.63;10.02;;;;;;;;;;5111417;28;20047;-76
2023/09/01 11:10:45;;;;;;;17.08;9.75;;;;;;;;;;5110957;28;20046;-76
2023/09/01 11:13:18;;;;;;;16.65;9.80;;;;;;;;;;5115575;28;20088;-77
2023/09/01 11:15:45;;;;;;;15.77;9.75;;;;;;;;;;5114455;27;20397;-76
2023/09/01 11:18:23;;;;;;;14.55;9.27;;;;;;;;;;5117685;27;20070;-77
2023/09/01 11:20:56;;;;;;;14.68;8.00;;;;;;;;;;5115865;28;20040;-77
2023/09/01 11:23:23;;;;;;;16.52;8.30;;;;;;;;;;5114881;28;20087;-76
2023/09/01 11:25:56;;;;;;;16.65;8.52;;;;;;;;;;5115123;27;20512;-76
2023/09/01 11:28:22;;;;;;;14.85;8.77;;;;;;;;;;5115272;27;20048;-77
2023/09/01 11:30:55;;;;;;;15.40;9.00;;;;;;;;;;5113958;28;20039;-77
2023/09/01 11:33:22;;;;;;;15.90;8.65;;;;;;;;;;5118090;27;20050;-77
2023/09/01 11:35:49;;;;;;;14.23;9.32;;;;;;;;;;5115009;28;20058;-77
2023/09/01 11:38:19;;;;;;;14.15;9.90;;;;;;;;;;5113910;28;20054;-78
2023/09/01 11:40:46;;;;;;;15.05;10.00;;;;;;;;;;5114786;28;20128;-77
2023/09/01 11:43:12;;;;;;;15.15;9.50;;;;;;;;;;5096351;28;20095;-77
2023/09/01 11:45:46;;;;;;;19.50;9.60;;;;;;;;;;5114657;27;20079;-77
2023/09/01 11:48:12;;;;;;;14.18;8.93;;;;;;;;;;5116383;27;20131;-77
2023/09/01 11:50:43;;;;;;;16.40;8.68;;;;;;;;;;5113637;28;20053;-76
2023/09/01 11:53:09;;;;;;;15.55;8.70;;;;;;;;;;5094797;28;20512;-76
2023/09/01 11:55:43;;;;;;;14.10;8.32;;;;;;;;;;5093920;28;20048;-76
2023/09/01 11:58:09;;;;;;;13.07;7.63;;;;;;;;;;5075829;28;20547;-77
2023/09/01 12:00:39;;;;;;;18.40;8.90;;;;;;;;;;5105886;28;20051;-77
2023/09/01 12:03:05;;;;;;;13.85;8.23;;;;;;;;;;5112454;27;20043;-76
2023/09/01 12:05:35;;;;;;;14.23;7.82;;;;;;;;;;5114386;28;20043;-76
2023/09/01 12:08:02;;;;;;;14.20;7.75;;;;;;;;;;5113785;28;20054;-76
2023/09/01 12:10:29;;;;;;;14.88;8.40;;;;;;;;;;5113718;27;20056;-76
2023/09/01 12:13:11;;;;;;;13.68;7.93;;;;;;;;;;5117795;27;20051;-77
2023/09/01 12:15:57;;;;;;;16.63;8.60;;;;;;;;;;5113443;28;20157;-77
2023/09/01 12:18:38;;;;;;;13.30;8.55;;;;;;;;;;5094840;28;20070;-77
2023/09/01 12:21:05;;;;;;;14.73;8.02;;;;;;;;;;5112424;28;20549;-76
2023/09/01 12:23:32;;;;;;;13.70;7.85;;;;;;;;;;5096135;28;20351;-77
2023/09/01 12:25:58;;;;;;;13.63;7.63;;;;;;;;;;5093525;28;20436;-76
2023/09/01 12:28:26;;;;;;;12.85;7.70;;;;;;;;;;5091612;28;20409;-76
2023/09/01 12:30:52;;;;;;;13.00;8.07;;;;;;;;;;5095312;28;20039;-76
2023/09/01 12:33:18;;;;;;;12.93;7.78;;;;;;;;;;5113987;28;20062;-77
2023/09/01 12:35:44;;;;;;;13.02;7.20;;;;;;;;;;5113886;28;20055;-77
2023/09/01 12:38:10;;;;;;;13.85;7.07;;;;;;;;;;5113666;28;20067;-76
2023/09/01 12:40:36;;;;;;;13.68;7.15;;;;;;;;;;5113624;28;20130;-76
2023/09/01 12:43:03;;;;;;;14.25;7.25;;;;;;;;;;5107036;28;20044;-76
2023/09/01 12:45:29;;;;;;;12.52;6.65;;;;;;;;;;5112658;28;20047;-76
2023/09/01 12:47:56;;;;;;;12.32;7.63;;;;;;;;;;5113524;28;20048;-76
2023/09/01 12:50:22;;;;;;;12.82;7.65;;;;;;;;;;5113584;28;20080;-76
2023/09/01 12:52:50;;;;;;;12.95;6.88;;;;;;;;;;5113281;28;20490;-76
2023/09/01 12:55:16;;;;;;;11.25;5.50;;;;;;;;;;5113678;28;20104;-77
2023/09/01 12:57:42;;;;;;;11.57;5.72;;;;;;;;;;5101814;28;20040;-76
2023/09/01 13:00:08;;;;;;;11.57;6.40;;;;;;;;;;5112675;27;20054;-76
2023/09/01 13:02:34;;;;;;;13.18;7.18;;;;;;;;;;5113243;28;20043;-77
2023/09/01 13:05:00;;;;;;;12.63;6.15;;;;;;;;;;5113474;28;20052;-77
2023/09/01 13:07:26;;;;;;;15.02;6.63;;;;;;;;;;5120646;27;20055;-76
2023/09/01 13:09:53;;;;;;;12.68;7.00;;;;;;;;;;5133907;27;20486;-76
2023/09/01 13:12:19;;;;;;;14.13;7.30;;;;;;;;;;5125575;27;20052;-76
2023/09/01 13:14:45;;;;;;;14.63;7.57;;;;;;;;;;5108978;27;20130;-76
2023/09/01 13:17:11;;;;;;;13.15;7.82;;;;;;;;;;5112071;28;20048;-78
2023/09/01 13:19:37;;;;;;;12.57;7.00;;;;;;;;;;5083640;28;20052;-77
2023/09/01 13:22:03;;;;;;;13.57;7.57;;;;;;;;;;5112230;28;20486;-77
2023/09/01 13:24:30;;;;;;;14.68;7.82;;;;;;;;;;5112741;28;20503;-76
2023/09/01 13:26:56;;;;;;;15.75;8.43;;;;;;;;;;5113003;28;20062;-77
2023/09/01 13:29:22;;;;;;;15.52;7.30;;;;;;;;;;5112951;28;20047;-76
2023/09/01 13:31:48;;;;;;;12.73;6.47;;;;;;;;;;5077634;28;20115;-77
2023/09/01 13:34:14;;;;;;;13.57;6.50;;;;;;;;;;5124868;27;20047;-76
2023/09/01 13:36:40;;;;;;;13.43;7.13;;;;;;;;;;5112828;28;20047;-77
2023/09/01 13:39:06;;;;;;;14.07;6.50;;;;;;;;;;5073614;28;20052;-77
2023/09/01 13:41:32;;;;;;;12.80;6.30;;;;;;;;;;5103472;28;20455;-77
2023/09/01 13:43:59;;;;;;;13.02;6.13;;;;;;;;;;5112540;28;20534;-77
2023/09/01 13:46:26;;;;;;;13.35;6.07;;;;;;;;;;5112492;28;20051;-77
2023/09/01 13:48:56;;;;;;;14.45;6.40;;;;;;;;;;5120138;27;20047;-76
2023/09/01 13:51:23;;;;;;;11.00;5.20;;;;;;;;;;5114456;27;20042;-76
2023/09/01 13:53:49;;;;;;;11.98;4.93;;;;;;;;;;5102810;28;20040;-77
2023/09/01 13:56:16;;;;;;;11.63;5.45;;;;;;;;;;5097555;27;20047;-76
2023/09/01 13:58:42;;;;;;;12.23;6.13;;;;;;;;;;5115419;27;20581;-77
2023/09/01 14:01:08;;;;;;;9.77;5.97;;;;;;;;;;5116248;28;20054;-77
2023/09/01 14:03:34;;;;;;;12.55;6.30;;;;;;;;;;5118444;27;20048;-75
2023/09/01 14:06:01;;;;;;;11.68;6.60;;;;;;;;;;5131932;27;20051;-77
2023/09/01 14:08:30;;;;;;;14.82;6.22;;;;;;;;;;5090730;28;20131;-76
2023/09/01 14:10:57;;;;;;;15.15;7.60;;;;;;;;;;5096180;28;20044;-77
2023/09/01 14:13:23;;;;;;;11.18;6.18;;;;;;;;;;5093808;28;20097;-77
2023/09/01 14:15:50;;;;;;;14.73;7.45;;;;;;;;;;5087619;28;20044;-77
2023/09/01 14:18:17;;;;;;;10.77;7.10;;;;;;;;;;5093230;28;20048;-76
2023/09/01 14:20:43;;;;;;;12.95;6.22;;;;;;;;;;5095127;28;20085;-76
2023/09/01 14:23:09;;;;;;;11.68;7.05;;;;;;;;;;5095205;28;20458;-76
2023/09/01 14:25:36;;;;;;;13.80;7.05;;;;;;;;;;5095821;28;20072;-76
2023/09/01 14:28:02;;;;;;;12.40;6.63;;;;;;;;;;5095971;28;20047;-76
2023/09/01 14:30:28;;;;;;;13.68;5.90;;;;;;;;;;5095361;28;20124;-76
2023/09/01 14:32:55;;;;;;;9.98;5.72;;;;;;;;;;5090575;28;20040;-77
2023/09/01 14:35:21;;;;;;;13.13;6.10;;;;;;;;;;5092054;28;20078;-77